createdAt,value
2023-03-13T00:00:28.690Z,97771.94
2023-03-13T00:02:31.395Z,97755.78
2023-03-13T00:04:34.068Z,97762.81
2023-03-13T00:06:38.565Z,97766.69
2023-03-13T00:08:41.447Z,97755.13
2023-03-13T00:10:44.138Z,97762.03
2023-03-13T00:12:46.721Z,97765.03
2023-03-13T00:14:49.381Z,97760.72
2023-03-13T00:16:52.092Z,97766.50
2023-03-13T00:18:56.103Z,97749.69
2023-03-13T00:21:06.907Z,97759.13
2023-03-13T00:23:09.633Z,97760.41
2023-03-13T00:25:12.331Z,97758.34
2023-03-13T00:27:15.371Z,97747.00
2023-03-13T00:29:18.012Z,97762.53
2023-03-13T00:31:22.343Z,97759.81
2023-03-13T00:33:25.014Z,97759.31
2023-03-13T00:35:27.604Z,97760.28
2023-03-13T00:37:32.282Z,97755.16
2023-03-13T00:39:35.081Z,97748.94
2023-03-13T00:41:38.339Z,97758.06
2023-03-13T00:43:42.788Z,97767.00
2023-03-13T00:45:45.417Z,97755.16
2023-03-13T00:47:50.166Z,97751.81
2023-03-13T00:49:52.761Z,97763.81
2023-03-13T00:51:55.368Z,97764.94
2023-03-13T00:54:02.909Z,97759.03
2023-03-13T00:56:10.965Z,97762.72
2023-03-13T00:58:13.547Z,97757.59
2023-03-13T01:00:16.769Z,97768.63
2023-03-13T01:02:19.564Z,97761.91
2023-03-13T01:04:22.527Z,97757.13
2023-03-13T01:06:30.750Z,97762.22
2023-03-13T01:08:34.024Z,97778.06
2023-03-13T01:10:36.949Z,97764.16
2023-03-13T01:12:39.581Z,97758.41
2023-03-13T01:14:42.212Z,97769.47
2023-03-13T01:16:44.804Z,97770.25
2023-03-13T01:18:53.250Z,97773.63
2023-03-13T01:20:55.863Z,97771.69
2023-03-13T01:22:58.528Z,97777.44
2023-03-13T01:25:01.126Z,97770.59
2023-03-13T01:27:04.156Z,97774.91
2023-03-13T01:29:06.835Z,97774.88
2023-03-13T01:31:21.866Z,97768.66
2023-03-13T01:33:24.543Z,97769.31
2023-03-13T01:35:27.149Z,97761.16
2023-03-13T01:37:29.802Z,97751.56
2023-03-13T01:39:32.484Z,97756.34
2023-03-13T01:41:35.480Z,97762.44
2023-03-13T01:43:38.462Z,97771.06
2023-03-13T01:46:13.747Z,97781.47
2023-03-13T01:48:16.479Z,97780.31
2023-03-13T01:50:19.176Z,97773.94
2023-03-13T01:52:31.288Z,97782.56
2023-03-13T01:54:50.331Z,97783.03
2023-03-13T01:57:04.722Z,97783.66
2023-03-13T01:59:11.055Z,97776.34
2023-03-13T02:01:15.589Z,97778.09
2023-03-13T02:03:21.381Z,97784.31
2023-03-13T02:05:27.739Z,97794.84
2023-03-13T02:07:56.436Z,97779.03
2023-03-13T02:09:59.574Z,97776.31
2023-03-13T02:12:13.781Z,97771.03
2023-03-13T02:14:20.796Z,97769.41
2023-03-13T02:16:25.343Z,97776.00
2023-03-13T02:18:28.477Z,97767.66
2023-03-13T02:20:31.480Z,97775.03
2023-03-13T02:23:14.473Z,97774.41
2023-03-13T02:25:17.083Z,97777.91
2023-03-13T02:27:19.827Z,97773.28
2023-03-13T02:29:23.326Z,97775.19
2023-03-13T02:31:27.490Z,97768.81
2023-03-13T02:33:34.652Z,97774.41
2023-03-13T02:35:37.596Z,97770.91
2023-03-13T02:37:44.205Z,97765.16
2023-03-13T02:39:51.133Z,97777.59
2023-03-13T02:41:55.071Z,97769.78
2023-03-13T02:43:57.681Z,97769.78
2023-03-13T02:46:09.398Z,97770.25
2023-03-13T02:48:11.995Z,97770.59
2023-03-13T02:50:15.163Z,97770.72
2023-03-13T02:52:25.112Z,97772.50
2023-03-13T02:54:33.811Z,97765.78
2023-03-13T02:56:40.620Z,97773.44
2023-03-13T02:58:49.837Z,97780.81
2023-03-13T03:00:53.764Z,97775.84
2023-03-13T03:02:56.761Z,97779.69
2023-03-13T03:04:59.375Z,97779.53
2023-03-13T03:07:02.031Z,97786.22
2023-03-13T03:09:05.304Z,97779.22
2023-03-13T03:11:08.133Z,97803.84
2023-03-13T03:13:10.755Z,97799.34
2023-03-13T03:15:13.812Z,97814.69
2023-03-13T03:17:16.421Z,97806.88
2023-03-13T03:19:19.050Z,97806.69
2023-03-13T03:21:22.745Z,97805.41
2023-03-13T03:23:25.331Z,97815.97
2023-03-13T03:25:27.986Z,97833.84
2023-03-13T03:27:32.124Z,97818.66
2023-03-13T03:29:34.722Z,97814.97
2023-03-13T03:31:37.373Z,97809.38
2023-03-13T03:33:40.653Z,97806.47
2023-03-13T03:35:43.270Z,97808.25
2023-03-13T03:37:45.799Z,97800.72
2023-03-13T03:39:48.467Z,97807.09
2023-03-13T03:41:51.038Z,97802.94
2023-03-13T03:43:53.656Z,97807.69
2023-03-13T03:45:56.332Z,97823.63
2023-03-13T03:48:00.007Z,97815.75
2023-03-13T03:50:04.147Z,97828.50
2023-03-13T03:52:07.117Z,97834.38
2023-03-13T03:54:09.713Z,97817.88
2023-03-13T03:56:12.340Z,97814.63
2023-03-13T03:58:14.913Z,97808.19
2023-03-13T04:00:19.385Z,97829.22
2023-03-13T04:02:22.080Z,97821.16
2023-03-13T04:04:24.699Z,97839.25
2023-03-13T04:06:27.236Z,97836.34
2023-03-13T04:08:30.081Z,97843.31
2023-03-13T04:10:33.292Z,97844.03
2023-03-13T04:12:36.127Z,97839.47
2023-03-13T04:14:38.805Z,97863.34
2023-03-13T04:16:41.560Z,97865.16
2023-03-13T04:18:44.160Z,97872.59
2023-03-13T04:20:46.954Z,97866.97
2023-03-13T04:22:49.562Z,97885.75
2023-03-13T04:24:52.217Z,97880.13
2023-03-13T04:26:54.856Z,97887.56
2023-03-13T04:28:57.607Z,97880.25
2023-03-13T04:31:01.614Z,97877.81
2023-03-13T04:33:04.422Z,97879.22
2023-03-13T04:35:07.413Z,97868.53
2023-03-13T04:37:10.149Z,97881.53
2023-03-13T04:39:12.814Z,97886.34
2023-03-13T04:41:15.454Z,97890.78
2023-03-13T04:43:18.072Z,97897.38
2023-03-13T04:45:20.865Z,97889.84
2023-03-13T04:47:23.502Z,97891.47
2023-03-13T04:49:26.159Z,97902.00
2023-03-13T04:51:28.832Z,97925.34
2023-03-13T04:53:31.542Z,97914.63
2023-03-13T04:55:34.103Z,97923.16
2023-03-13T04:57:36.687Z,97928.97
2023-03-13T04:59:39.404Z,97942.59
2023-03-13T05:01:43.142Z,97945.59
2023-03-13T05:03:46.552Z,97941.78
2023-03-13T05:05:49.283Z,97955.41
2023-03-13T05:07:51.837Z,97945.59
2023-03-13T05:09:54.451Z,97958.09
2023-03-13T05:11:58.265Z,97953.81
2023-03-13T05:14:01.119Z,97980.63
2023-03-13T05:16:03.868Z,97956.69
2023-03-13T05:18:06.514Z,97957.38
2023-03-13T05:20:11.559Z,97970.19
2023-03-13T05:22:14.142Z,97953.94
2023-03-13T05:24:16.766Z,97968.03
2023-03-13T05:26:19.405Z,97979.53
2023-03-13T05:28:22.179Z,97987.19
2023-03-13T05:30:25.006Z,97974.81
2023-03-13T05:32:27.733Z,97981.59
2023-03-13T05:34:30.475Z,97982.69
2023-03-13T05:36:33.087Z,97990.06
2023-03-13T05:38:35.779Z,97993.84
2023-03-13T05:40:38.349Z,98004.47
2023-03-13T05:42:40.928Z,97997.66
2023-03-13T05:44:43.627Z,98007.97
2023-03-13T05:46:46.327Z,98017.66
2023-03-13T05:48:49.069Z,98004.97
2023-03-13T05:50:51.652Z,98002.75
2023-03-13T05:52:54.261Z,98023.81
2023-03-13T05:54:57.078Z,98022.28
2023-03-13T05:56:59.636Z,98030.38
2023-03-13T05:59:02.258Z,98031.41
2023-03-13T06:01:13.229Z,98055.72
2023-03-13T06:03:15.867Z,98048.44
2023-03-13T06:05:18.597Z,98053.63
2023-03-13T06:07:21.280Z,98045.53
2023-03-13T06:09:23.934Z,98050.63
2023-03-13T06:11:26.530Z,98051.94
2023-03-13T06:13:29.828Z,98045.09
2023-03-13T06:15:32.730Z,98048.22
2023-03-13T06:17:36.299Z,98043.81
2023-03-13T06:19:38.995Z,98040.03
2023-03-13T06:21:42.713Z,98054.84
2023-03-13T06:23:45.420Z,98058.59
2023-03-13T06:25:49.624Z,98057.75
2023-03-13T06:27:52.219Z,98068.09
2023-03-13T06:29:54.935Z,98067.66
2023-03-13T06:31:57.785Z,98068.53
2023-03-13T06:34:00.707Z,98080.69
2023-03-13T06:36:04.285Z,98083.94
2023-03-13T06:38:06.970Z,98100.16
2023-03-13T06:40:10.895Z,98095.03
2023-03-13T06:42:13.513Z,98089.19
2023-03-13T06:44:16.188Z,98088.88
2023-03-13T06:46:24.443Z,98112.50
2023-03-13T06:48:27.131Z,98112.56
2023-03-13T06:50:29.919Z,98118.03
2023-03-13T06:52:43.082Z,98110.94
2023-03-13T06:54:46.454Z,98118.31
2023-03-13T06:56:49.273Z,98125.66
2023-03-13T06:58:52.018Z,98114.06
2023-03-13T07:00:54.911Z,98156.50
2023-03-13T07:02:58.009Z,98143.72
2023-03-13T07:05:02.436Z,98149.44
2023-03-13T07:07:05.957Z,98145.06
2023-03-13T07:09:08.748Z,98137.75
2023-03-13T07:11:13.565Z,98165.00
2023-03-13T07:13:16.150Z,98153.03
2023-03-13T07:15:18.812Z,98152.69
2023-03-13T07:17:22.708Z,98160.28
2023-03-13T07:19:29.337Z,98164.47
2023-03-13T07:21:33.150Z,98173.03
2023-03-13T07:23:40.439Z,98168.25
2023-03-13T07:25:43.018Z,98193.63
2023-03-13T07:27:45.853Z,98184.03
2023-03-13T07:29:48.854Z,98190.63
2023-03-13T07:31:51.638Z,98199.72
2023-03-13T07:33:57.996Z,98221.53
2023-03-13T07:36:00.898Z,98238.66
2023-03-13T07:38:03.536Z,98244.47
2023-03-13T07:40:06.749Z,98224.25
2023-03-13T07:42:13.681Z,98242.69
2023-03-13T07:44:18.477Z,98244.06
2023-03-13T07:46:21.851Z,98251.63
2023-03-13T07:48:28.221Z,98223.72
2023-03-13T07:50:30.844Z,98223.41
2023-03-13T07:52:33.591Z,98239.00
2023-03-13T07:54:36.197Z,98239.16
2023-03-13T07:56:39.041Z,98239.34
2023-03-13T07:58:42.715Z,98239.06
2023-03-13T08:00:45.358Z,98253.97
2023-03-13T08:02:47.986Z,98246.59
2023-03-13T08:04:54.199Z,98260.56
2023-03-13T08:06:57.084Z,98241.03
2023-03-13T08:09:00.127Z,98244.41
2023-03-13T08:11:10.229Z,98263.50
2023-03-13T08:13:12.835Z,98263.59
2023-03-13T08:15:15.473Z,98283.09
2023-03-13T08:17:18.047Z,98276.72
2023-03-13T08:19:20.812Z,98287.91
2023-03-13T08:21:32.422Z,98287.72
2023-03-13T08:23:35.840Z,98284.16
2023-03-13T08:25:38.619Z,98291.22
2023-03-13T08:27:41.647Z,98306.06
2023-03-13T08:29:44.265Z,98292.59
2023-03-13T08:31:52.852Z,98280.06
2023-03-13T08:33:55.565Z,98304.44
2023-03-13T08:35:58.282Z,98278.75
2023-03-13T08:38:00.907Z,98288.25
2023-03-13T08:40:04.287Z,98285.56
2023-03-13T08:42:11.714Z,98289.06
2023-03-13T08:44:16.577Z,98277.31
2023-03-13T08:46:19.838Z,98276.72
2023-03-13T08:48:23.175Z,98296.47
2023-03-13T08:50:25.915Z,98293.41
2023-03-13T08:52:28.604Z,98298.75
2023-03-13T08:54:31.342Z,98302.19
2023-03-13T08:56:35.044Z,98311.81
2023-03-13T08:58:38.529Z,98310.84
2023-03-13T09:00:41.106Z,98300.88
2023-03-13T09:02:43.703Z,98293.25
2023-03-13T09:04:47.861Z,98320.13
2023-03-13T09:06:50.436Z,98319.78
2023-03-13T09:08:53.047Z,98312.53
2023-03-13T09:10:57.965Z,98327.19
2023-03-13T09:13:00.630Z,98301.88
2023-03-13T09:15:03.285Z,98322.56
2023-03-13T09:17:06.875Z,98340.69
2023-03-13T09:19:09.607Z,98340.47
2023-03-13T09:21:20.962Z,98357.81
2023-03-13T09:23:24.174Z,98352.91
2023-03-13T09:25:26.920Z,98353.16
2023-03-13T09:27:29.682Z,98365.94
2023-03-13T09:29:33.506Z,98349.19
2023-03-13T09:31:36.129Z,98361.63
2023-03-13T09:33:39.431Z,98351.69
2023-03-13T09:35:42.371Z,98356.56
2023-03-13T09:37:45.003Z,98358.06
2023-03-13T09:39:49.941Z,98365.22
2023-03-13T09:42:01.511Z,98363.38
2023-03-13T09:44:13.577Z,98359.88
2023-03-13T09:46:18.716Z,98388.63
2023-03-13T09:48:24.068Z,98367.50
2023-03-13T09:50:40.574Z,98384.09
2023-03-13T09:52:44.203Z,98377.16
2023-03-13T09:54:55.928Z,98395.63
2023-03-13T09:57:40.849Z,98393.09
2023-03-13T10:00:02.926Z,98398.16
2023-03-13T10:02:21.963Z,98395.00
2023-03-13T10:04:46.498Z,98392.81
2023-03-13T10:06:49.575Z,98383.03
2023-03-13T10:08:52.995Z,98396.63
2023-03-13T10:11:04.742Z,98404.69
2023-03-13T10:13:20.168Z,98427.28
2023-03-13T10:15:43.700Z,98395.16
2023-03-13T10:17:46.813Z,98412.72
2023-03-13T10:19:59.222Z,98410.44
2023-03-13T10:22:10.905Z,98422.00
2023-03-13T10:24:43.073Z,98429.25
2023-03-13T10:26:45.673Z,98433.91
2023-03-13T10:28:48.578Z,98441.81
2023-03-13T10:30:58.870Z,98433.25
2023-03-13T10:33:07.088Z,98445.03
2023-03-13T10:35:20.576Z,98456.13
2023-03-13T10:37:41.674Z,98445.94
2023-03-13T10:39:44.326Z,98439.94
2023-03-13T10:41:49.237Z,98434.38
2023-03-13T10:43:54.028Z,98458.91
2023-03-13T10:45:56.766Z,98475.22
2023-03-13T10:48:15.252Z,98479.47
2023-03-13T10:50:22.259Z,98475.94
2023-03-13T10:52:49.779Z,98479.69
2023-03-13T10:55:00.018Z,98474.72
2023-03-13T10:57:32.958Z,98479.34
2023-03-13T10:59:43.150Z,98502.25
2023-03-13T11:01:45.924Z,98490.03
2023-03-13T11:03:50.559Z,98523.38
2023-03-13T11:06:00.749Z,98532.09
2023-03-13T11:08:36.152Z,98517.22
2023-03-13T11:11:11.264Z,98497.03
2023-03-13T11:13:43.430Z,98526.44
2023-03-13T11:15:57.586Z,98516.84
2023-03-13T11:18:16.066Z,98519.38
2023-03-13T11:20:27.449Z,98546.50
2023-03-13T11:22:35.876Z,98537.84
2023-03-13T11:25:00.657Z,98554.31
2023-03-13T11:27:32.004Z,98556.50
2023-03-13T11:30:01.920Z,98554.31
2023-03-13T11:32:17.644Z,98533.59
2023-03-13T11:34:32.782Z,98592.13
2023-03-13T11:36:36.783Z,98579.66
2023-03-13T11:38:54.793Z,98547.31
2023-03-13T11:41:28.157Z,98577.97
2023-03-13T11:43:42.029Z,98571.53
2023-03-13T11:45:44.887Z,98558.25
2023-03-13T11:48:03.903Z,98571.53
2023-03-13T11:50:40.322Z,98605.97
2023-03-13T11:53:14.525Z,98565.72
2023-03-13T11:55:43.185Z,98583.34
2023-03-13T11:58:24.725Z,98590.00
2023-03-13T12:00:45.811Z,98610.56
2023-03-13T12:03:12.913Z,98602.78
2023-03-13T12:05:20.219Z,98597.56
2023-03-13T12:07:35.443Z,98613.94
2023-03-13T12:09:57.639Z,98624.16
2023-03-13T12:12:04.765Z,98631.38
2023-03-13T12:14:15.978Z,98604.47
2023-03-13T12:16:26.678Z,98613.66
2023-03-13T12:18:38.633Z,98613.97
2023-03-13T12:21:06.917Z,98634.56
2023-03-13T12:23:24.768Z,98654.69
2023-03-13T12:25:33.011Z,98641.09
2023-03-13T12:27:43.472Z,98637.88
2023-03-13T12:30:01.322Z,98640.69
2023-03-13T12:32:19.960Z,98652.97
2023-03-13T12:34:25.671Z,98647.16
2023-03-13T12:36:32.669Z,98664.44
2023-03-13T12:38:39.340Z,98647.16
2023-03-13T12:40:46.284Z,98650.19
2023-03-13T12:43:10.750Z,98665.78
2023-03-13T12:45:24.186Z,98678.03
2023-03-13T12:47:50.971Z,98665.16
2023-03-13T12:50:08.761Z,98663.19
2023-03-13T12:52:36.612Z,98672.44
2023-03-13T12:54:50.923Z,98671.66
2023-03-13T12:57:06.672Z,98674.31
2023-03-13T12:59:29.481Z,98683.31
2023-03-13T13:01:35.269Z,98708.94
2023-03-13T13:03:55.741Z,98686.75
2023-03-13T13:06:12.868Z,98688.91
2023-03-13T13:08:26.290Z,98692.19
2023-03-13T13:10:29.577Z,98693.28
2023-03-13T13:12:32.286Z,98694.41
2023-03-13T13:15:02.014Z,98694.03
2023-03-13T13:17:33.934Z,98700.91
2023-03-13T13:19:42.024Z,98697.59
2023-03-13T13:21:44.724Z,98713.88
2023-03-13T13:23:48.268Z,98719.03
2023-03-13T13:25:51.960Z,98722.22
2023-03-13T13:27:54.968Z,98743.00
2023-03-13T13:29:59.507Z,98715.94
2023-03-13T13:32:03.136Z,98723.44
2023-03-13T13:34:05.862Z,98726.50
2023-03-13T13:36:21.537Z,98733.06
2023-03-13T13:38:37.138Z,98750.06
2023-03-13T13:40:40.343Z,98737.88
2023-03-13T13:42:52.236Z,98752.19
2023-03-13T13:44:59.095Z,98758.56
2023-03-13T13:47:02.355Z,98762.47
2023-03-13T13:49:05.897Z,98769.59
2023-03-13T13:51:11.946Z,98781.13
2023-03-13T13:53:29.761Z,98766.97
2023-03-13T13:55:42.638Z,98769.16
2023-03-13T13:57:46.420Z,98799.22
2023-03-13T13:59:53.992Z,98787.81
2023-03-13T14:02:10.271Z,98787.81
2023-03-13T14:04:27.319Z,98797.47
2023-03-13T14:06:36.490Z,98791.03
2023-03-13T14:08:41.968Z,98814.44
2023-03-13T14:10:49.611Z,98794.03
2023-03-13T14:13:02.191Z,98800.28
2023-03-13T14:15:08.993Z,98794.75
2023-03-13T14:17:11.712Z,98811.06
2023-03-13T14:19:35.939Z,98805.94
2023-03-13T14:21:38.622Z,98808.66
2023-03-13T14:23:46.660Z,98813.41
2023-03-13T14:25:51.097Z,98815.69
2023-03-13T14:27:55.087Z,98817.31
2023-03-13T14:30:05.390Z,98814.94
2023-03-13T14:32:08.841Z,98824.47
2023-03-13T14:34:13.299Z,98826.91
2023-03-13T14:36:16.010Z,98819.34
2023-03-13T14:38:23.903Z,98833.94
2023-03-13T14:40:29.918Z,98831.25
2023-03-13T14:42:39.368Z,98836.91
2023-03-13T14:44:44.199Z,98847.44
2023-03-13T14:46:47.305Z,98853.38
2023-03-13T14:48:50.000Z,98847.44
2023-03-13T14:51:12.572Z,98850.38
2023-03-13T14:53:20.810Z,98864.38
2023-03-13T14:55:23.349Z,98863.81
2023-03-13T14:57:29.555Z,98858.88
2023-03-13T14:59:32.547Z,98863.72
2023-03-13T15:01:35.286Z,98868.53
2023-03-13T15:03:44.637Z,98874.72
2023-03-13T15:06:07.482Z,98881.22
2023-03-13T15:08:24.295Z,98883.34
2023-03-13T15:10:37.269Z,98888.41
2023-03-13T15:12:44.079Z,98897.53
2023-03-13T15:14:49.099Z,98893.75
2023-03-13T15:16:51.823Z,98905.81
2023-03-13T15:18:56.438Z,98901.72
2023-03-13T15:21:10.956Z,98905.47
2023-03-13T15:23:15.503Z,98911.56
2023-03-13T15:25:20.898Z,98909.63
2023-03-13T15:27:25.913Z,98909.88
2023-03-13T15:29:28.568Z,98915.19
2023-03-13T15:31:31.292Z,98910.91
2023-03-13T15:33:35.061Z,98926.47
2023-03-13T15:35:37.804Z,98928.34
2023-03-13T15:37:40.536Z,98928.03
2023-03-13T15:39:43.305Z,98928.50
2023-03-13T15:41:45.902Z,98933.00
2023-03-13T15:43:52.833Z,98938.13
2023-03-13T15:45:55.821Z,98929.22
2023-03-13T15:48:00.019Z,98936.97
2023-03-13T15:50:02.640Z,98934.00
2023-03-13T15:52:17.776Z,98936.13
2023-03-13T15:54:20.475Z,98939.63
2023-03-13T15:56:23.608Z,98939.31
2023-03-13T15:58:28.845Z,98940.94
2023-03-13T16:00:31.515Z,98945.81
2023-03-13T16:02:34.141Z,98946.91
2023-03-13T16:04:38.060Z,98954.13
2023-03-13T16:06:40.745Z,98955.22
2023-03-13T16:08:43.521Z,98960.84
2023-03-13T16:10:47.148Z,98954.94
2023-03-13T16:12:49.754Z,98954.59
2023-03-13T16:14:52.392Z,98959.13
2023-03-13T16:16:55.166Z,98966.63
2023-03-13T16:18:58.847Z,98969.28
2023-03-13T16:21:01.531Z,98969.53
2023-03-13T16:23:04.185Z,98970.84
2023-03-13T16:25:07.774Z,98978.59
2023-03-13T16:27:18.722Z,98978.53
2023-03-13T16:29:21.421Z,98978.47
2023-03-13T16:31:32.359Z,98983.53
2023-03-13T16:33:35.358Z,98994.28
2023-03-13T16:35:38.640Z,98986.47
2023-03-13T16:37:41.806Z,98999.38
2023-03-13T16:39:45.675Z,99003.09
2023-03-13T16:41:48.297Z,99005.50
2023-03-13T16:43:51.623Z,99007.09
2023-03-13T16:45:54.244Z,99008.19
2023-03-13T16:47:57.102Z,99010.88
2023-03-13T16:49:59.848Z,99007.38
2023-03-13T16:52:02.475Z,99014.59
2023-03-13T16:54:06.739Z,99023.75
2023-03-13T16:56:23.804Z,99022.38
2023-03-13T16:58:26.503Z,99022.31
2023-03-13T17:00:31.206Z,99019.84
2023-03-13T17:02:37.701Z,99025.72
2023-03-13T17:04:43.127Z,99018.97
2023-03-13T17:06:47.965Z,99027.28
2023-03-13T17:08:50.979Z,99024.59
2023-03-13T17:10:54.433Z,99033.16
2023-03-13T17:12:59.166Z,99040.66
2023-03-13T17:15:02.077Z,99041.41
2023-03-13T17:17:07.343Z,99036.00
2023-03-13T17:19:13.850Z,99046.84
2023-03-13T17:21:22.535Z,99044.22
2023-03-13T17:23:36.032Z,99042.91
2023-03-13T17:25:39.688Z,99047.47
2023-03-13T17:27:44.223Z,99052.56
2023-03-13T17:29:47.438Z,99046.34
2023-03-13T17:31:50.821Z,99053.13
2023-03-13T17:33:53.822Z,99057.94
2023-03-13T17:35:56.509Z,99057.03
2023-03-13T17:37:59.141Z,99057.84
2023-03-13T17:40:01.918Z,99063.53
2023-03-13T17:42:06.297Z,99058.66
2023-03-13T17:44:08.980Z,99063.72
2023-03-13T17:46:38.919Z,99069.25
2023-03-13T17:48:41.755Z,99068.13
2023-03-13T17:50:44.483Z,99078.53
2023-03-13T17:52:47.146Z,99079.03
2023-03-13T17:54:49.761Z,99081.97
2023-03-13T17:56:52.497Z,99085.94
2023-03-13T17:58:58.630Z,99083.75
2023-03-13T18:01:01.238Z,99084.72
2023-03-13T18:03:04.214Z,99094.44
2023-03-13T18:05:07.469Z,99083.91
2023-03-13T18:07:30.278Z,99090.59
2023-03-13T18:09:32.953Z,99090.81
2023-03-13T18:11:37.345Z,99101.00
2023-03-13T18:13:40.130Z,99091.06
2023-03-13T18:15:42.806Z,99093.75
2023-03-13T18:17:45.903Z,99098.06
2023-03-13T18:19:50.125Z,99102.16
2023-03-13T18:21:55.400Z,99104.84
2023-03-13T18:23:58.844Z,99106.44
2023-03-13T18:26:01.515Z,99100.03
2023-03-13T18:28:04.294Z,99102.97
2023-03-13T18:30:27.756Z,99107.75
2023-03-13T18:32:30.508Z,99113.38
2023-03-13T18:34:35.167Z,99119.81
2023-03-13T18:36:38.284Z,99109.31
2023-03-13T18:38:40.931Z,99098.72
2023-03-13T18:40:43.468Z,99119.72
2023-03-13T18:42:46.282Z,99112.38
2023-03-13T18:44:48.995Z,99122.31
2023-03-13T18:46:53.143Z,99116.38
2023-03-13T18:48:56.189Z,99126.31
2023-03-13T18:50:58.888Z,99132.25
2023-03-13T18:53:01.966Z,99128.72
2023-03-13T18:55:04.833Z,99132.00
2023-03-13T18:57:19.355Z,99138.44
2023-03-13T18:59:23.534Z,99143.59
2023-03-13T19:01:28.743Z,99143.00
2023-03-13T19:03:31.389Z,99141.63
2023-03-13T19:05:33.984Z,99139.97
2023-03-13T19:07:36.552Z,99149.41
2023-03-13T19:09:43.552Z,99153.41
2023-03-13T19:11:47.831Z,99146.41
2023-03-13T19:13:51.001Z,99148.28
2023-03-13T19:15:53.621Z,99150.13
2023-03-13T19:17:56.561Z,99151.91
2023-03-13T19:19:59.241Z,99161.00
2023-03-13T19:22:02.335Z,99158.81
2023-03-13T19:24:05.490Z,99162.31
2023-03-13T19:26:17.435Z,99151.25
2023-03-13T19:28:20.562Z,99165.16
2023-03-13T19:30:25.770Z,99163.50
2023-03-13T19:32:29.250Z,99161.91
2023-03-13T19:34:32.006Z,99170.75
2023-03-13T19:36:37.822Z,99169.13
2023-03-13T19:38:40.619Z,99160.50
2023-03-13T19:40:43.325Z,99168.22
2023-03-13T19:42:46.119Z,99172.75
2023-03-13T19:44:49.026Z,99175.44
2023-03-13T19:46:54.705Z,99169.97
2023-03-13T19:49:02.181Z,99173.47
2023-03-13T19:51:04.942Z,99172.91
2023-03-13T19:53:07.881Z,99178.16
2023-03-13T19:55:10.722Z,99180.50
2023-03-13T19:57:13.864Z,99180.97
2023-03-13T19:59:23.433Z,99182.50
2023-03-13T20:01:26.886Z,99189.41
2023-03-13T20:03:30.182Z,99169.34
2023-03-13T20:05:32.797Z,99177.84
2023-03-13T20:07:35.366Z,99181.81
2023-03-13T20:09:38.001Z,99182.53
2023-03-13T20:11:41.650Z,99182.41
2023-03-13T20:13:44.754Z,99188.59
2023-03-13T20:15:47.335Z,99190.81
2023-03-13T20:17:49.955Z,99192.44
2023-03-13T20:19:52.626Z,99201.31
2023-03-13T20:21:59.782Z,99199.22
2023-03-13T20:24:02.932Z,99201.88
2023-03-13T20:26:09.860Z,99188.84
2023-03-13T20:28:12.538Z,99202.25
2023-03-13T20:30:15.674Z,99204.09
2023-03-13T20:32:19.685Z,99205.16
2023-03-13T20:34:23.339Z,99213.09
2023-03-13T20:36:26.916Z,99211.13
2023-03-13T20:38:30.021Z,99213.44
2023-03-13T20:40:34.080Z,99217.66
2023-03-13T20:42:39.429Z,99219.97
2023-03-13T20:44:42.159Z,99210.53
2023-03-13T20:46:44.789Z,99221.47
2023-03-13T20:48:47.525Z,99231.63
2023-03-13T20:50:52.138Z,99228.38
2023-03-13T20:52:56.394Z,99233.38
2023-03-13T20:54:59.001Z,99230.91
2023-03-13T20:57:02.593Z,99229.50
2023-03-13T20:59:05.305Z,99235.81
2023-03-13T21:01:08.248Z,99241.19
2023-03-13T21:03:10.944Z,99241.19
2023-03-13T21:05:13.742Z,99244.47
2023-03-13T21:07:16.384Z,99238.25
2023-03-13T21:09:19.057Z,99244.91
2023-03-13T21:11:23.700Z,99242.47
2023-03-13T21:13:26.317Z,99240.00
2023-03-13T21:15:28.983Z,99245.59
2023-03-13T21:17:31.647Z,99255.50
2023-03-13T21:19:34.644Z,99244.44
2023-03-13T21:21:37.256Z,99249.78
2023-03-13T21:23:40.027Z,99252.47
2023-03-13T21:25:42.708Z,99254.91
2023-03-13T21:27:45.692Z,99251.88
2023-03-13T21:29:51.159Z,99260.38
2023-03-13T21:31:53.979Z,99267.59
2023-03-13T21:33:57.528Z,99261.22
2023-03-13T21:36:00.273Z,99271.09
2023-03-13T21:38:03.157Z,99271.94
2023-03-13T21:40:06.992Z,99270.28
2023-03-13T21:42:12.438Z,99271.56
2023-03-13T21:44:19.701Z,99275.03
2023-03-13T21:46:23.772Z,99284.75
2023-03-13T21:48:26.717Z,99279.81
2023-03-13T21:50:29.670Z,99294.50
2023-03-13T21:52:41.316Z,99296.59
2023-03-13T21:54:44.181Z,99297.84
2023-03-13T21:56:46.841Z,99298.09
2023-03-13T21:58:49.691Z,99295.84
2023-03-13T22:00:58.712Z,99306.22
2023-03-13T22:03:01.394Z,99309.13
2023-03-13T22:05:05.256Z,99312.06
2023-03-13T22:07:08.133Z,99309.59
2023-03-13T22:09:10.833Z,99307.72
2023-03-13T22:11:13.702Z,99304.44
2023-03-13T22:13:16.732Z,99312.47
2023-03-13T22:15:19.373Z,99312.34
2023-03-13T22:17:22.317Z,99313.63
2023-03-13T22:19:24.947Z,99307.66
2023-03-13T22:21:27.628Z,99315.09
2023-03-13T22:23:30.416Z,99325.47
2023-03-13T22:25:33.484Z,99320.53
2023-03-13T22:27:36.135Z,99323.09
2023-03-13T22:29:38.742Z,99319.38
2023-03-13T22:31:41.364Z,99321.22
2023-03-13T22:33:44.104Z,99327.41
2023-03-13T22:35:52.671Z,99330.09
2023-03-13T22:37:56.146Z,99331.13
2023-03-13T22:39:58.766Z,99337.28
2023-03-13T22:42:01.341Z,99333.00
2023-03-13T22:44:04.041Z,99338.94
2023-03-13T22:46:07.377Z,99340.22
2023-03-13T22:48:09.971Z,99336.47
2023-03-13T22:50:13.428Z,99335.88
2023-03-13T22:52:16.080Z,99339.97
2023-03-13T22:54:18.661Z,99350.69
2023-03-13T22:56:21.492Z,99343.50
2023-03-13T22:58:24.193Z,99344.50
2023-03-13T23:00:26.961Z,99357.31
2023-03-13T23:02:29.843Z,99359.19
2023-03-13T23:04:32.460Z,99354.88
2023-03-13T23:06:35.058Z,99360.84
2023-03-13T23:08:37.726Z,99358.59
2023-03-13T23:10:43.828Z,99364.53
2023-03-13T23:12:46.449Z,99372.38
2023-03-13T23:14:49.167Z,99369.69
2023-03-13T23:16:51.842Z,99366.41
2023-03-13T23:18:54.507Z,99372.22
2023-03-13T23:20:57.125Z,99375.91
2023-03-13T23:22:59.712Z,99373.25
2023-03-13T23:25:02.451Z,99381.06
2023-03-13T23:27:05.923Z,99390.13
2023-03-13T23:29:08.643Z,99383.97
2023-03-13T23:31:14.503Z,99387.69
2023-03-13T23:33:17.117Z,99388.72
2023-03-13T23:35:19.921Z,99392.22
2023-03-13T23:37:22.637Z,99399.44
2023-03-13T23:39:25.236Z,99394.72
2023-03-13T23:41:27.828Z,99402.78
2023-03-13T23:43:30.393Z,99410.22
2023-03-13T23:45:36.552Z,99408.38
2023-03-13T23:47:39.437Z,99409.38
2023-03-13T23:49:42.074Z,99406.94
2023-03-13T23:51:44.617Z,99415.00
2023-03-13T23:53:47.323Z,99407.31
2023-03-13T23:55:58.553Z,99426.22
2023-03-13T23:58:01.261Z,99423.47
